Taylor, North Dakota
Current Conditions -  °F | °C
As of 5:56 PM on Tuesday 27 Jan 2015 (Local Time) from KDIK Reporting Station
Clear Clear  
Wind Chill: 40°   Ceiling: Unl
Heat Index: 43°   Visibility: 10mi
Dew Point: 33°   Wind: 5mph
Humidity: 68%   Direction: 260°W
Pressure: 29.78"   Gusts: NA
Location:  46.9°N, 102.43°W
Report Text: KDIK 280056Z AUTO 26004KT 10SM CLR 06/01 A2978 RMK AO2 SLP099 T00610006
Loading
Personal Weather Stations






























Interactive Weather Map New forecast layout! Learn more

10-Day Weather Forecast

Advertisements
Track Severe Weather on mobile